Time;durP1;ratioP1;P1;durP2;ratioP2;P2;SDS_P1;SDS_P2;PMS_P1;PMS_P2;Temp;Humidity;BMP_temperature;BMP_pressure;BME280_temperature;BME280_humidity;BME280_pressure;Samples;Min_cycle;Max_cycle;Signal;HPM_P1;HPM_P2
2024/04/10 00:01:06;;;;;;;6.82;1.08;;;9.50;99.90;;;;;;5519394;25;20045;-69
2024/04/10 00:03:34;;;;;;;4.47;0.95;;;9.50;99.90;;;;;;5501274;25;20038;-69
2024/04/10 00:06:05;;;;;;;3.65;0.85;;;9.50;99.90;;;;;;5538665;25;20021;-69
2024/04/10 00:08:33;;;;;;;2.13;0.63;;;9.40;99.90;;;;;;5512746;25;20030;-70
2024/04/10 00:11:03;;;;;;;2.63;0.77;;;9.40;99.90;;;;;;5523982;25;20030;-70
2024/04/10 00:13:30;;;;;;;3.83;0.80;;;9.40;99.90;;;;;;5498949;25;20029;-69
2024/04/10 00:16:08;;;;;;;3.80;0.70;;;9.30;99.90;;;;;;5517432;25;20054;-69
2024/04/10 00:18:36;;;;;;;2.03;0.60;;;9.30;99.90;;;;;;5526873;25;20033;-69
2024/04/10 00:21:03;;;;;;;3.83;0.57;;;9.20;99.90;;;;;;5511723;25;20041;-69
2024/04/10 00:23:30;;;;;;;2.25;0.63;;;9.20;99.90;;;;;;5499446;25;20034;-69
2024/04/10 00:26:02;;;;;;;2.30;0.70;;;9.10;99.90;;;;;;5530459;25;20033;-70
2024/04/10 00:28:30;;;;;;;3.88;0.90;;;9.10;99.90;;;;;;5504103;25;20029;-70
2024/04/10 00:31:03;;;;;;;1.55;0.52;;;9.10;99.90;;;;;;5522408;25;20701;-70
2024/04/10 00:33:29;;;;;;;6.07;0.70;;;9.10;99.90;;;;;;5526479;25;20356;-70
2024/04/10 00:36:01;;;;;;;4.68;0.70;;;9.10;99.90;;;;;;5520685;25;20029;-70
2024/04/10 00:38:30;;;;;;;3.33;0.40;;;9.00;99.90;;;;;;5519204;25;20488;-70
2024/04/10 00:40:59;;;;;;;1.85;0.50;;;9.00;99.90;;;;;;5515735;25;20508;-70
2024/04/10 00:43:27;;;;;;;3.13;0.50;;;8.60;99.90;;;;;;5521800;25;20025;-70
2024/04/10 00:45:58;;;;;;;1.60;0.50;;;9.00;99.90;;;;;;5506905;25;20026;-69
2024/04/10 00:48:25;;;;;;;3.13;1.23;;;9.00;99.90;;;;;;5506478;25;20469;-70
2024/04/10 00:50:53;;;;;;;1.48;0.60;;;9.00;99.90;;;;;;5512737;25;20032;-69
2024/04/10 00:53:20;;;;;;;3.75;0.70;;;9.00;99.90;;;;;;5497417;25;20029;-70
2024/04/10 00:55:48;;;;;;;0.20;0.20;;;9.10;99.90;;;;;;5512717;25;20021;-70
2024/04/10 00:58:15;;;;;;;2.03;0.60;;;9.00;99.90;;;;;;5508632;25;20544;-70
2024/04/10 01:00:42;;;;;;;2.55;0.75;;;9.10;99.90;;;;;;5516892;25;20022;-70
2024/04/10 01:03:10;;;;;;;3.17;0.60;;;9.10;99.90;;;;;;5507408;25;20144;-70
2024/04/10 01:05:37;;;;;;;1.70;0.70;;;9.10;99.90;;;;;;5496697;25;20030;-69
2024/04/10 01:08:05;;;;;;;3.92;0.70;;;9.10;99.90;;;;;;5537096;25;20033;-70
2024/04/10 01:10:32;;;;;;;0.57;0.50;;;9.10;99.90;;;;;;5509084;25;20037;-70
2024/04/10 01:13:01;;;;;;;2.75;0.80;;;9.20;99.90;;;;;;5515280;25;20411;-70
2024/04/10 01:15:28;;;;;;;1.85;0.80;;;9.20;99.90;;;;;;5505124;25;20025;-69
2024/04/10 01:17:54;;;;;;;4.80;0.65;;;9.20;99.90;;;;;;5529554;25;20025;-69
2024/04/10 01:20:21;;;;;;;2.03;0.65;;;9.20;99.90;;;;;;5537671;25;20033;-69
2024/04/10 01:22:50;;;;;;;2.00;0.70;;;9.20;99.90;;;;;;5511631;25;20107;-70
2024/04/10 01:25:17;;;;;;;1.52;1.00;;;9.20;99.90;;;;;;5541718;25;20419;-70
2024/04/10 01:27:44;;;;;;;4.05;1.00;;;9.20;99.90;;;;;;5526162;25;20487;-69
2024/04/10 01:30:11;;;;;;;3.85;1.13;;;9.20;99.90;;;;;;5506199;25;20030;-69
2024/04/10 01:32:38;;;;;;;4.85;1.38;;;9.20;99.90;;;;;;5522271;25;20028;-69
2024/04/10 01:35:05;;;;;;;5.38;1.48;;;9.20;99.90;;;;;;5529774;25;20030;-69
2024/04/10 01:37:32;;;;;;;6.07;1.25;;;9.20;99.90;;;;;;5506578;25;20038;-69
2024/04/10 01:39:59;;;;;;;7.50;1.80;;;9.20;99.90;;;;;;5501388;25;20034;-70
2024/04/10 01:42:25;;;;;;;6.88;1.40;;;9.20;99.90;;;;;;5510544;25;20024;-69
2024/04/10 01:44:52;;;;;;;9.40;1.88;;;9.20;99.90;;;;;;5526373;25;20373;-70
2024/04/10 01:47:19;;;;;;;4.47;1.52;;;9.20;99.90;;;;;;5504211;25;20033;-71
2024/04/10 01:49:46;;;;;;;5.38;1.73;;;9.30;99.90;;;;;;5512871;25;20022;-71
2024/04/10 01:52:13;;;;;;;3.75;1.75;;;9.30;99.90;;;;;;5519696;25;20021;-71
2024/04/10 01:54:40;;;;;;;5.32;1.38;;;9.30;99.90;;;;;;5517336;25;20042;-72
2024/04/10 01:57:07;;;;;;;6.18;1.60;;;9.30;99.90;;;;;;5526651;25;20038;-72
2024/04/10 01:59:34;;;;;;;4.28;1.13;;;9.30;99.90;;;;;;5533704;25;20042;-71
2024/04/10 02:02:01;;;;;;;3.58;0.90;;;9.30;99.90;;;;;;5497517;25;20042;-71
2024/04/10 02:04:29;;;;;;;2.20;0.88;;;9.30;99.90;;;;;;5511876;25;20041;-71
2024/04/10 02:06:56;;;;;;;4.25;1.23;;;9.30;99.90;;;;;;5508514;25;20028;-71
2024/04/10 02:09:23;;;;;;;2.05;0.80;;;9.20;99.90;;;;;;5501009;25;20361;-71
2024/04/10 02:11:49;;;;;;;2.20;1.10;;;9.20;99.90;;;;;;5514205;25;20021;-71
2024/04/10 02:14:16;;;;;;;7.38;1.00;;;9.10;99.90;;;;;;5534181;25;20037;-71
2024/04/10 02:16:46;;;;;;;5.28;1.08;;;9.10;99.90;;;;;;5522056;25;20033;-72
2024/04/10 02:19:13;;;;;;;6.90;1.05;;;9.10;99.90;;;;;;5511030;25;20025;-71
2024/04/10 02:21:40;;;;;;;2.80;1.00;;;9.00;99.90;;;;;;5537676;25;20041;-71
2024/04/10 02:24:07;;;;;;;6.25;1.70;;;9.00;99.90;;;;;;5524447;25;20044;-71
2024/04/10 02:26:34;;;;;;;5.25;1.38;;;9.00;99.90;;;;;;5536505;25;20045;-71
2024/04/10 02:29:01;;;;;;;6.72;1.48;;;9.00;99.90;;;;;;5525687;25;20037;-71
2024/04/10 02:31:28;;;;;;;7.95;1.50;;;9.00;99.90;;;;;;5538545;25;20037;-71
2024/04/10 02:33:54;;;;;;;7.15;1.70;;;9.00;99.90;;;;;;5517230;25;20038;-71
2024/04/10 02:36:21;;;;;;;8.65;1.90;;;9.00;99.90;;;;;;5518658;25;20041;-71
2024/04/10 02:38:48;;;;;;;5.72;2.25;;;9.00;99.90;;;;;;5532265;25;20030;-71
2024/04/10 02:41:15;;;;;;;7.85;1.98;;;9.00;99.90;;;;;;5534342;25;20038;-71
2024/04/10 02:43:42;;;;;;;11.27;2.35;;;9.00;99.90;;;;;;5517263;25;20037;-71
2024/04/10 02:46:10;;;;;;;9.32;2.53;;;9.00;99.90;;;;;;5539709;25;20030;-71
2024/04/10 02:48:37;;;;;;;7.10;2.00;;;9.00;99.90;;;;;;5526226;25;20034;-71
2024/04/10 02:51:06;;;;;;;9.57;2.20;;;9.00;99.90;;;;;;5497056;25;20049;-70
2024/04/10 02:53:33;;;;;;;10.50;2.55;;;9.10;99.90;;;;;;5519392;25;20025;-71
2024/04/10 02:56:00;;;;;;;9.40;3.05;;;9.00;99.90;;;;;;5507742;25;20046;-70
2024/04/10 02:58:27;;;;;;;10.15;2.78;;;9.10;99.90;;;;;;5510267;25;20028;-71
2024/04/10 03:00:55;;;;;;;11.95;2.70;;;9.10;99.90;;;;;;5501023;25;20034;-70
2024/04/10 03:03:23;;;;;;;10.05;2.60;;;9.00;99.90;;;;;;5510858;25;20045;-72
2024/04/10 03:06:07;;;;;;;10.50;2.85;;;9.00;99.90;;;;;;5534488;25;20033;-71
2024/04/10 03:08:36;;;;;;;14.27;2.83;;;9.00;99.90;;;;;;5517547;25;20037;-71
2024/04/10 03:11:08;;;;;;;10.63;2.70;;;8.90;99.90;;;;;;5508231;25;20034;-72
2024/04/10 03:13:37;;;;;;;14.02;2.95;;;8.90;99.90;;;;;;5532919;25;20036;-72
2024/04/10 03:16:06;;;;;;;12.10;2.67;;;8.90;99.90;;;;;;5524579;25;20488;-71
2024/04/10 03:18:33;;;;;;;11.30;2.67;;;8.90;99.90;;;;;;5506032;25;20448;-71
2024/04/10 03:21:00;;;;;;;11.77;2.90;;;8.90;99.90;;;;;;5505279;25;20030;-71
2024/04/10 03:23:27;;;;;;;10.35;2.78;;;8.90;99.90;;;;;;5511963;25;20026;-71
2024/04/10 03:26:04;;;;;;;14.57;2.63;;;8.80;99.90;;;;;;5511244;25;20029;-71
2024/04/10 03:28:33;;;;;;;11.07;3.28;;;8.80;99.90;;;;;;5541653;25;20373;-71
2024/04/10 03:31:03;;;;;;;9.63;2.47;;;8.80;99.90;;;;;;5526932;25;20026;-71
2024/04/10 03:33:29;;;;;;;6.05;2.38;;;8.80;99.90;;;;;;5509337;25;20025;-71
2024/04/10 03:35:56;;;;;;;13.98;3.38;;;8.80;99.90;;;;;;5504796;25;20033;-71
2024/04/10 03:38:23;;;;;;;17.80;3.10;;;8.70;99.90;;;;;;5502701;25;20029;-72
2024/04/10 03:40:50;;;;;;;12.63;3.30;;;8.70;99.90;;;;;;5516198;25;20037;-71
2024/04/10 03:43:17;;;;;;;12.60;3.00;;;8.70;99.90;;;;;;5527290;25;20688;-72
2024/04/10 03:45:46;;;;;;;12.93;2.90;;;8.70;99.90;;;;;;5528046;25;20025;-70
2024/04/10 03:48:13;;;;;;;16.27;3.45;;;8.70;99.90;;;;;;5518780;25;20025;-71
2024/04/10 03:50:40;;;;;;;11.57;2.97;;;8.70;99.90;;;;;;5512496;25;20026;-71
2024/04/10 03:53:06;;;;;;;17.73;3.22;;;8.70;99.90;;;;;;5502600;25;20025;-71
2024/04/10 03:55:33;;;;;;;13.73;3.22;;;8.60;99.90;;;;;;5523869;25;20539;-71
2024/04/10 03:58:00;;;;;;;10.15;3.33;;;8.60;99.90;;;;;;5549911;25;20021;-71
2024/04/10 04:00:27;;;;;;;15.65;3.42;;;8.60;99.90;;;;;;5519432;25;20025;-70
2024/04/10 04:02:54;;;;;;;18.38;4.28;;;8.60;99.90;;;;;;5512792;25;20025;-72
2024/04/10 04:05:21;;;;;;;15.10;3.88;;;8.60;99.90;;;;;;5521062;25;20476;-71
2024/04/10 04:07:48;;;;;;;15.65;3.70;;;8.60;99.90;;;;;;5519565;25;20025;-71
2024/04/10 04:10:15;;;;;;;19.30;4.40;;;8.60;99.90;;;;;;5517352;25;20470;-71
2024/04/10 04:12:42;;;;;;;12.15;3.63;;;8.60;99.90;;;;;;5519544;25;20030;-71
2024/04/10 04:15:09;;;;;;;17.83;3.42;;;8.60;99.90;;;;;;5540083;25;20029;-70
2024/04/10 04:17:36;;;;;;;17.77;3.35;;;8.60;99.90;;;;;;5528088;25;20657;-71
2024/04/10 04:20:03;;;;;;;20.17;3.63;;;8.60;99.90;;;;;;5504264;25;19998;-71
2024/04/10 04:22:30;;;;;;;16.77;5.20;;;8.60;99.90;;;;;;5518962;25;20025;-71
2024/04/10 04:24:57;;;;;;;14.85;4.07;;;8.60;99.90;;;;;;5509385;25;20653;-71
2024/04/10 04:27:26;;;;;;;11.60;3.67;;;8.60;99.90;;;;;;5491533;25;20021;-70
2024/04/10 04:29:53;;;;;;;14.98;4.45;;;8.60;99.90;;;;;;5507686;25;20041;-71
2024/04/10 04:32:19;;;;;;;13.63;4.00;;;8.50;99.90;;;;;;5534608;25;20036;-70
2024/04/10 04:34:46;;;;;;;17.48;4.38;;;8.50;99.90;;;;;;5513476;25;20030;-70
2024/04/10 04:37:13;;;;;;;17.27;4.28;;;8.50;99.90;;;;;;5502534;25;20037;-70
2024/04/10 04:39:40;;;;;;;20.05;4.90;;;8.50;99.90;;;;;;5509018;25;20037;-71
2024/04/10 04:42:07;;;;;;;18.67;4.15;;;8.50;99.90;;;;;;5522396;25;20419;-71
2024/04/10 04:44:34;;;;;;;21.45;4.18;;;8.50;99.90;;;;;;5516591;25;20022;-70
2024/04/10 04:47:00;;;;;;;17.70;4.15;;;8.50;99.90;;;;;;5519252;25;20034;-70
2024/04/10 04:49:27;;;;;;;17.20;3.88;;;8.50;99.90;;;;;;5541800;25;20032;-71
2024/04/10 04:51:54;;;;;;;20.77;4.65;;;8.50;99.90;;;;;;5519939;25;20401;-71
2024/04/10 04:54:21;;;;;;;17.52;4.53;;;8.50;99.90;;;;;;5534817;25;20033;-70
2024/04/10 04:56:48;;;;;;;14.23;4.00;;;8.40;99.90;;;;;;5506331;25;20029;-70
2024/04/10 04:59:16;;;;;;;22.45;4.47;;;8.50;99.90;;;;;;5543639;25;20042;-70
2024/04/10 05:01:42;;;;;;;19.67;4.88;;;8.40;99.90;;;;;;5528114;25;20033;-70
2024/04/10 05:06:55;;;;;;;16.10;4.35;;;8.40;99.90;;;;;;5523220;25;20044;-70
2024/04/10 05:09:23;;;;;;;15.23;3.75;;;8.40;99.90;;;;;;5544488;25;20028;-70
2024/04/10 05:11:49;;;;;;;16.92;4.60;;;8.40;99.90;;;;;;5533247;25;20036;-70
2024/04/10 05:14:16;;;;;;;15.45;4.22;;;8.40;99.90;;;;;;5520548;25;20041;-70
2024/04/10 05:16:43;;;;;;;17.48;4.40;;;8.40;99.90;;;;;;5522072;25;20029;-70
2024/04/10 05:19:10;;;;;;;17.42;4.57;;;8.40;99.90;;;;;;5524463;25;20026;-72
2024/04/10 05:21:37;;;;;;;19.98;4.50;;;8.40;99.90;;;;;;5511127;25;20030;-70
2024/04/10 05:24:04;;;;;;;15.73;4.03;;;8.40;99.90;;;;;;5532504;25;20041;-70
2024/04/10 05:26:31;;;;;;;17.67;4.28;;;8.40;99.90;;;;;;5495199;25;20042;-70
2024/04/10 05:28:58;;;;;;;14.20;4.00;;;8.40;99.90;;;;;;5518905;25;20025;-70
2024/04/10 05:31:25;;;;;;;18.27;4.10;;;8.40;99.90;;;;;;5500687;25;21685;-70
2024/04/10 05:33:52;;;;;;;18.52;4.43;;;8.40;99.90;;;;;;5512158;25;20111;-70
2024/04/10 05:36:19;;;;;;;17.73;4.30;;;8.40;99.90;;;;;;5529223;25;20033;-69
2024/04/10 05:38:46;;;;;;;20.13;4.30;;;8.40;99.90;;;;;;5517231;25;20649;-70
2024/04/10 05:41:13;;;;;;;22.83;4.82;;;8.40;99.90;;;;;;5520148;25;20467;-70
2024/04/10 05:43:40;;;;;;;20.33;4.53;;;8.40;99.90;;;;;;5526553;25;19998;-70
2024/04/10 05:46:07;;;;;;;20.90;5.00;;;8.40;99.90;;;;;;5515268;25;20029;-70
2024/04/10 05:48:34;;;;;;;18.45;4.40;;;8.40;99.90;;;;;;5524643;25;20026;-70
2024/04/10 05:51:01;;;;;;;18.52;4.43;;;8.50;99.90;;;;;;5524129;25;20033;-70
2024/04/10 05:53:30;;;;;;;16.90;4.10;;;8.40;99.90;;;;;;5520707;25;20021;-70
2024/04/10 05:56:01;;;;;;;19.67;4.47;;;8.40;99.90;;;;;;5522549;25;20473;-69
2024/04/10 05:58:28;;;;;;;17.63;3.90;;;8.40;99.90;;;;;;5520434;25;20033;-70
2024/04/10 06:00:55;;;;;;;17.23;4.25;;;8.50;99.90;;;;;;5514642;25;20034;-69
2024/04/10 06:03:21;;;;;;;19.20;4.65;;;8.50;99.90;;;;;;5521388;25;20029;-70
2024/04/10 06:05:48;;;;;;;22.20;5.13;;;8.50;99.90;;;;;;5531864;25;20029;-70
2024/04/10 06:08:15;;;;;;;17.40;4.88;;;8.60;99.90;;;;;;5543168;25;20096;-69
2024/04/10 06:10:51;;;;;;;18.70;4.97;;;8.60;99.90;;;;;;5533959;25;20473;-69
2024/04/10 06:13:17;;;;;;;17.02;4.38;;;8.60;99.90;;;;;;5533488;25;20024;-70
2024/04/10 06:15:44;;;;;;;14.77;4.60;;;8.60;99.90;;;;;;5514444;25;20025;-70
2024/04/10 06:18:11;;;;;;;23.02;5.43;;;8.60;99.90;;;;;;5530759;25;20021;-70
2024/04/10 06:20:39;;;;;;;19.08;5.38;;;8.70;99.90;;;;;;5497587;25;20041;-70
2024/04/10 06:23:06;;;;;;;21.98;5.13;;;8.70;99.90;;;;;;5514569;25;20057;-70
2024/04/10 06:25:33;;;;;;;21.17;5.47;;;8.70;99.90;;;;;;5521465;25;20025;-69
2024/04/10 06:28:00;;;;;;;20.48;5.28;;;8.70;99.90;;;;;;5512265;25;20022;-70
2024/04/10 06:30:28;;;;;;;20.40;5.40;;;8.70;99.90;;;;;;5508449;25;20044;-70
2024/04/10 06:32:54;;;;;;;20.42;4.82;;;8.80;99.90;;;;;;5519143;25;20033;-70
2024/04/10 06:35:21;;;;;;;22.05;5.43;;;8.80;99.90;;;;;;5514491;25;20025;-70
2024/04/10 06:37:48;;;;;;;22.98;5.28;;;8.80;99.90;;;;;;5504745;25;20026;-70
2024/04/10 06:40:15;;;;;;;21.30;4.95;;;8.90;99.90;;;;;;5517337;25;20037;-70
2024/04/10 06:42:42;;;;;;;29.60;5.95;;;8.90;99.90;;;;;;5515342;25;20383;-69
2024/04/10 06:45:09;;;;;;;19.30;5.78;;;8.90;99.90;;;;;;5513066;25;20038;-71
2024/04/10 06:47:35;;;;;;;24.67;5.85;;;9.00;99.90;;;;;;5512853;25;20021;-71
2024/04/10 06:50:02;;;;;;;17.30;5.40;;;9.10;99.90;;;;;;5509739;25;20033;-71
2024/04/10 06:52:30;;;;;;;25.80;6.28;;;9.10;99.90;;;;;;5529395;25;20037;-71
2024/04/10 06:54:57;;;;;;;24.08;6.22;;;9.10;99.90;;;;;;5520271;25;20482;-71
2024/04/10 06:57:23;;;;;;;24.98;5.97;;;9.20;99.90;;;;;;5519805;25;20034;-71
2024/04/10 06:59:50;;;;;;;23.65;6.47;;;9.20;99.90;;;;;;5521950;25;20026;-71
2024/04/10 07:03:52;;;;;;;25.60;6.75;;;9.30;99.90;;;;;;5527049;25;20358;-70
2024/04/10 07:06:19;;;;;;;24.45;7.00;;;9.40;99.90;;;;;;5496660;25;20038;-69
2024/04/10 07:08:48;;;;;;;28.00;7.47;;;9.40;99.90;;;;;;5478731;26;20029;-69
2024/04/10 07:11:21;;;;;;;23.92;7.30;;;9.40;99.90;;;;;;5488168;25;20855;-69
2024/04/10 07:13:50;;;;;;;32.60;8.07;;;9.50;99.90;;;;;;5475037;26;20030;-69
2024/04/10 07:16:17;;;;;;;28.52;8.43;;;9.50;99.90;;;;;;5495092;26;20038;-69
2024/04/10 07:18:45;;;;;;;25.92;8.27;;;9.60;99.90;;;;;;5474300;26;20038;-69
2024/04/10 07:21:13;;;;;;;37.17;8.55;;;9.60;99.90;;;;;;5481710;26;20478;-70
2024/04/10 07:23:41;;;;;;;27.92;8.27;;;9.70;99.90;;;;;;5471763;26;20030;-70
2024/04/10 07:26:15;;;;;;;32.13;7.95;;;9.80;99.90;;;;;;5468063;26;20022;-69
2024/04/10 07:28:44;;;;;;;27.35;8.07;;;9.80;99.90;;;;;;5491302;25;20474;-69
2024/04/10 07:31:12;;;;;;;30.30;7.82;;;9.90;99.90;;;;;;5485762;25;20365;-69
2024/04/10 07:33:39;;;;;;;28.45;7.25;;;10.00;99.90;;;;;;5480737;26;20038;-69
2024/04/10 07:36:13;;;;;;;17.02;5.65;;;10.10;99.90;;;;;;5473831;26;20039;-69
2024/04/10 07:38:41;;;;;;;27.25;6.80;;;10.30;99.90;;;;;;5477798;25;20035;-70
2024/04/10 07:41:09;;;;;;;27.17;6.35;;;10.40;99.90;;;;;;5480364;26;20474;-70
2024/04/10 07:43:36;;;;;;;24.85;6.15;;;10.50;99.90;;;;;;5476829;26;20045;-69
2024/04/10 07:46:11;;;;;;;21.90;5.85;;;10.50;99.90;;;;;;5497095;26;20030;-69
2024/04/10 07:48:39;;;;;;;17.25;5.55;;;10.50;99.90;;;;;;5487447;26;20038;-69
2024/04/10 07:51:07;;;;;;;16.08;5.32;;;10.60;99.90;;;;;;5495045;25;20034;-69
2024/04/10 07:53:36;;;;;;;18.63;5.60;;;10.70;99.90;;;;;;5485888;26;20035;-69
2024/04/10 07:56:04;;;;;;;18.75;5.35;;;10.70;99.90;;;;;;5496739;25;20029;-69
2024/04/10 07:58:31;;;;;;;14.32;4.60;;;10.80;99.90;;;;;;5471087;26;20034;-70
2024/04/10 08:00:59;;;;;;;17.10;4.97;;;10.90;99.90;;;;;;5482700;26;20366;-69
2024/04/10 08:03:27;;;;;;;17.13;5.55;;;10.90;99.90;;;;;;5494038;26;20026;-70
2024/04/10 08:05:55;;;;;;;16.52;4.63;;;11.00;99.90;;;;;;5498031;26;20749;-69
2024/04/10 08:08:24;;;;;;;20.50;5.25;;;11.00;99.90;;;;;;5482396;25;20039;-70
2024/04/10 08:11:01;;;;;;;13.90;4.25;;;11.00;99.90;;;;;;5494753;26;20026;-69
2024/04/10 08:13:29;;;;;;;17.52;4.45;;;11.30;99.90;;;;;;5473606;26;20043;-69
2024/04/10 08:16:01;;;;;;;20.17;4.57;;;11.10;99.90;;;;;;5472854;26;20030;-68
2024/04/10 08:18:29;;;;;;;14.07;4.13;;;11.10;99.90;;;;;;5480556;26;20039;-68
2024/04/10 08:21:10;;;;;;;18.27;5.07;;;11.20;99.90;;;;;;5467368;26;20022;-69
2024/04/10 08:23:38;;;;;;;18.88;4.57;;;11.20;99.90;;;;;;5477591;26;20035;-68
2024/04/10 08:26:19;;;;;;;20.50;4.82;;;11.10;99.90;;;;;;5477025;26;20029;-68
2024/04/10 08:28:52;;;;;;;10.82;4.45;;;11.00;99.90;;;;;;5469123;26;20034;-68
2024/04/10 08:31:23;;;;;;;17.52;4.60;;;10.90;99.90;;;;;;5468019;26;20039;-69
2024/04/10 08:33:51;;;;;;;13.90;4.20;;;10.90;99.90;;;;;;5484761;26;20034;-68
2024/04/10 08:36:20;;;;;;;18.52;4.13;;;10.90;99.90;;;;;;5469794;26;20042;-69
2024/04/10 08:38:47;;;;;;;19.50;4.68;;;11.00;99.90;;;;;;5475833;26;20030;-68
2024/04/10 08:41:16;;;;;;;16.27;4.97;;;11.00;99.90;;;;;;5474355;26;20022;-68
2024/04/10 08:43:45;;;;;;;19.73;4.90;;;11.00;99.90;;;;;;5482522;26;20022;-68
2024/04/10 08:46:17;;;;;;;18.33;4.95;;;11.00;99.90;;;;;;5472830;26;20030;-68
2024/04/10 08:48:45;;;;;;;22.33;5.60;;;11.20;99.90;;;;;;5484049;26;20376;-68
2024/04/10 08:51:16;;;;;;;17.35;5.40;;;11.20;99.90;;;;;;5480030;26;20035;-68
2024/04/10 08:53:44;;;;;;;15.35;4.93;;;11.40;99.90;;;;;;5477316;26;20026;-68
2024/04/10 08:56:15;;;;;;;14.80;4.30;;;11.40;99.90;;;;;;5482198;26;20030;-69
2024/04/10 08:58:45;;;;;;;13.77;4.90;;;11.50;99.90;;;;;;5476961;26;20031;-68
2024/04/10 09:01:26;;;;;;;16.77;4.78;;;11.40;99.90;;;;;;5479790;26;20461;-68
2024/04/10 09:03:53;;;;;;;15.98;4.82;;;11.30;99.90;;;;;;5452366;26;20022;-68
2024/04/10 09:06:20;;;;;;;21.65;5.22;;;11.30;99.90;;;;;;5456118;26;20026;-69
2024/04/10 09:08:58;;;;;;;25.80;5.93;;;11.20;99.90;;;;;;5469805;26;20468;-68
2024/04/10 09:11:25;;;;;;;19.60;4.85;;;11.20;99.90;;;;;;5475375;26;19998;-69
2024/04/10 09:14:06;;;;;;;17.08;4.60;;;11.20;99.90;;;;;;5468390;26;20035;-69
2024/04/10 09:16:34;;;;;;;18.15;4.57;;;11.10;99.90;;;;;;5453831;26;20455;-68
2024/04/10 09:19:11;;;;;;;15.88;4.32;;;11.10;99.90;;;;;;5451852;26;20027;-68
2024/04/10 09:21:42;;;;;;;26.02;5.35;;;11.10;99.90;;;;;;5450851;26;20023;-68
2024/04/10 09:24:13;;;;;;;19.25;4.50;;;11.10;99.90;;;;;;5453141;26;20034;-68
2024/04/10 09:26:42;;;;;;;16.70;4.70;;;11.00;99.90;;;;;;5484318;26;20473;-69
2024/04/10 09:29:12;;;;;;;28.77;6.13;;;11.00;99.90;;;;;;5456657;26;20028;-69
2024/04/10 09:31:39;;;;;;;16.63;4.10;;;11.00;99.90;;;;;;5464700;26;20094;-69
2024/04/10 09:34:06;;;;;;;13.45;4.35;;;10.90;99.90;;;;;;5479507;26;20027;-69
2024/04/10 09:36:33;;;;;;;18.00;4.07;;;11.10;99.90;;;;;;5466122;26;20026;-69
2024/04/10 09:39:01;;;;;;;16.42;4.22;;;11.50;99.90;;;;;;5471103;26;20487;-69
2024/04/10 09:41:28;;;;;;;15.07;4.07;;;11.80;99.90;;;;;;5474975;26;20022;-69
2024/04/10 09:43:57;;;;;;;16.20;3.80;;;11.80;99.90;;;;;;5471026;26;20030;-69
2024/04/10 09:46:33;;;;;;;15.40;4.05;;;11.90;99.90;;;;;;5485507;26;20029;-69
2024/04/10 09:49:09;;;;;;;15.73;4.07;;;11.70;99.90;;;;;;5468756;26;20030;-69
2024/04/10 09:51:39;;;;;;;12.55;3.88;;;11.60;99.90;;;;;;5451116;26;20027;-69
2024/04/10 09:54:07;;;;;;;19.33;4.03;;;11.60;99.90;;;;;;5453879;26;20030;-69
2024/04/10 09:56:36;;;;;;;17.20;3.90;;;11.60;99.90;;;;;;5450188;26;20027;-69
2024/04/10 09:59:09;;;;;;;12.57;3.80;;;11.60;99.90;;;;;;5455864;26;20369;-69
2024/04/10 10:01:38;;;;;;;13.93;3.58;;;11.70;99.90;;;;;;5473320;26;20191;-69
2024/04/10 10:04:05;;;;;;;9.05;3.05;;;11.80;99.90;;;;;;5453476;26;20027;-69
2024/04/10 10:06:34;;;;;;;14.02;3.05;;;11.90;99.90;;;;;;5464302;26;20376;-69
2024/04/10 10:09:02;;;;;;;11.65;3.42;;;11.90;99.90;;;;;;5458576;26;20022;-69
2024/04/10 10:11:28;;;;;;;12.88;3.60;;;12.00;99.90;;;;;;5463877;26;20026;-69
2024/04/10 10:14:00;;;;;;;9.23;3.58;;;12.00;99.90;;;;;;5468282;26;20023;-69
2024/04/10 10:16:27;;;;;;;12.05;3.38;;;12.10;99.90;;;;;;5462928;26;20023;-69
2024/04/10 10:19:02;;;;;;;16.25;3.55;;;12.10;99.90;;;;;;5455886;26;20026;-68
2024/04/10 10:21:30;;;;;;;12.38;3.67;;;12.00;99.90;;;;;;5473022;26;20462;-69
2024/04/10 10:24:06;;;;;;;17.20;3.58;;;12.00;99.90;;;;;;5478721;26;20034;-68
2024/04/10 10:26:33;;;;;;;16.38;4.22;;;12.10;99.90;;;;;;5458991;26;20026;-69
2024/04/10 10:29:01;;;;;;;13.80;3.00;;;12.30;99.90;;;;;;5454609;26;20030;-68
2024/04/10 10:31:28;;;;;;;13.02;3.47;;;12.70;99.90;;;;;;5478417;26;20470;-69
2024/04/10 10:34:21;;;;;;;15.43;3.95;;;13.00;99.90;;;;;;5457518;26;20048;-69
2024/04/10 10:36:48;;;;;;;11.65;3.65;;;13.00;99.90;;;;;;5467110;26;20030;-69
2024/04/10 10:39:15;;;;;;;13.02;4.15;;;12.80;99.90;;;;;;5449896;26;20035;-69
2024/04/10 10:41:42;;;;;;;15.15;3.42;;;12.70;99.90;;;;;;5460098;26;20022;-69
2024/04/10 10:44:09;;;;;;;16.85;3.50;;;12.60;99.90;;;;;;5482134;26;20812;-68
2024/04/10 10:46:36;;;;;;;17.60;3.30;;;12.50;99.90;;;;;;5461306;26;20026;-69
2024/04/10 10:49:03;;;;;;;12.73;3.53;;;12.40;99.90;;;;;;5467766;26;20022;-69
2024/04/10 10:51:33;;;;;;;10.63;2.88;;;12.40;99.90;;;;;;5484473;26;20018;-69
2024/04/10 10:54:01;;;;;;;12.98;3.28;;;12.30;99.90;;;;;;5447886;26;20478;-69
2024/04/10 10:56:30;;;;;;;13.82;3.92;;;12.40;99.90;;;;;;5470915;26;20034;-70
2024/04/10 10:59:08;;;;;;;10.82;3.15;;;12.60;99.90;;;;;;5470980;26;20027;-68
2024/04/10 11:01:35;;;;;;;14.02;2.97;;;12.80;99.90;;;;;;5461994;26;20501;-68
2024/04/10 11:04:15;;;;;;;12.45;3.20;;;13.10;99.90;;;;;;5462561;26;20031;-69
2024/04/10 11:06:42;;;;;;;13.27;2.95;;;13.30;99.90;;;;;;5457992;26;20429;-68
2024/04/10 11:09:16;;;;;;;12.82;3.65;;;13.30;99.90;;;;;;5465288;26;20050;-69
2024/04/10 11:11:43;;;;;;;13.30;3.33;;;13.50;99.90;;;;;;5455505;26;20502;-69
2024/04/10 11:14:21;;;;;;;14.18;4.20;;;13.70;99.90;;;;;;5476873;26;20038;-69
2024/04/10 11:16:57;;;;;;;10.88;3.45;;;14.00;99.90;;;;;;5472226;26;20027;-69
2024/04/10 11:19:24;;;;;;;15.77;3.97;;;14.10;99.90;;;;;;5473051;26;20023;-69
2024/04/10 11:21:51;;;;;;;16.50;3.53;;;14.00;99.90;;;;;;5452284;26;20171;-69
2024/04/10 11:24:18;;;;;;;15.80;3.60;;;14.00;99.90;;;;;;5458774;26;20026;-69
2024/04/10 11:26:45;;;;;;;15.43;4.05;;;14.20;99.90;;;;;;5460896;26;20031;-69
2024/04/10 11:29:12;;;;;;;12.98;3.80;;;14.20;99.90;;;;;;5462995;26;20034;-69
2024/04/10 11:31:38;;;;;;;11.57;3.40;;;14.30;99.90;;;;;;5448996;26;20463;-69
2024/04/10 11:34:06;;;;;;;14.38;3.45;;;14.40;99.90;;;;;;5470600;26;20030;-69
2024/04/10 11:36:33;;;;;;;15.70;3.80;;;14.30;99.90;;;;;;5454844;26;20030;-69
2024/04/10 11:39:00;;;;;;;13.07;3.30;;;14.30;99.90;;;;;;5461767;26;20037;-69
2024/04/10 11:41:27;;;;;;;12.38;3.50;;;14.20;99.90;;;;;;5477621;26;20042;-69
2024/04/10 11:43:54;;;;;;;17.98;4.40;;;14.10;99.90;;;;;;5451135;26;20035;-69
2024/04/10 11:46:21;;;;;;;13.55;3.83;;;13.80;99.90;;;;;;5449882;26;20032;-69
2024/04/10 11:48:48;;;;;;;11.38;3.65;;;13.60;99.90;;;;;;5450065;26;20366;-69
2024/04/10 11:51:15;;;;;;;16.40;3.75;;;13.70;99.90;;;;;;5449762;26;21701;-69
2024/04/10 11:53:42;;;;;;;14.70;4.68;;;13.90;99.90;;;;;;5468760;26;20046;-69
2024/04/10 11:56:09;;;;;;;12.80;4.32;;;14.00;99.90;;;;;;5448735;26;20031;-69
2024/04/10 11:58:35;;;;;;;11.52;3.80;;;13.90;99.90;;;;;;5477447;26;20030;-69
2024/04/10 12:01:03;;;;;;;11.27;3.38;;;14.00;99.90;;;;;;5463839;26;20038;-69
2024/04/10 12:03:32;;;;;;;14.82;3.65;;;14.30;99.90;;;;;;5467247;26;20025;-69
2024/04/10 12:06:04;;;;;;;;;;;14.70;99.90;;;;;;5473512;26;20381;-69
2024/04/10 12:08:32;;;;;;;9.82;3.00;;;15.00;99.90;;;;;;5457896;26;19959;-69
2024/04/10 12:11:00;;;;;;;11.77;2.97;;;15.10;99.90;;;;;;5465183;26;20034;-69
2024/04/10 12:13:28;;;;;;;8.38;2.90;;;15.20;99.90;;;;;;5472082;26;20035;-69
2024/04/10 12:15:55;;;;;;;7.50;2.33;;;15.40;99.90;;;;;;5461571;26;20478;-69
2024/04/10 12:18:22;;;;;;;8.68;2.47;;;15.50;99.90;;;;;;5457375;26;20030;-69
2024/04/10 12:20:49;;;;;;;7.05;2.28;;;15.60;99.90;;;;;;5473979;26;20646;-69
2024/04/10 12:23:15;;;;;;;6.57;2.28;;;15.60;99.90;;;;;;5457458;26;20022;-69
2024/04/10 12:25:42;;;;;;;12.63;2.47;;;15.60;99.90;;;;;;5466090;26;20030;-69
2024/04/10 12:28:09;;;;;;;9.85;2.40;;;15.60;99.90;;;;;;5467533;26;20026;-69
2024/04/10 12:30:36;;;;;;;8.68;2.75;;;15.60;99.90;;;;;;5447871;26;20377;-69
2024/04/10 12:33:03;;;;;;;8.75;2.70;;;15.80;99.90;;;;;;5479504;26;20038;-69
2024/04/10 12:38:16;;;;;;;6.20;2.00;;;15.90;99.90;;;;;;5461483;26;20034;-69
2024/04/10 12:40:52;;;;;;;6.13;1.90;;;15.90;99.40;;;;;;5475313;26;20038;-69
2024/04/10 12:43:18;;;;;;;7.10;2.30;;;15.90;99.90;;;;;;5472458;26;20509;-71
2024/04/10 12:45:46;;;;;;;7.05;2.33;;;16.00;99.90;;;;;;5472235;26;20368;-71
2024/04/10 12:48:13;;;;;;;7.03;2.58;;;16.00;99.90;;;;;;5481814;26;20034;-70
2024/04/10 12:50:40;;;;;;;9.48;1.90;;;16.00;99.30;;;;;;5471998;26;20033;-70
2024/04/10 12:53:06;;;;;;;7.45;1.95;;;16.00;98.80;;;;;;5459417;26;20148;-70
2024/04/10 12:55:33;;;;;;;6.15;2.20;;;16.00;97.70;;;;;;5472488;26;20047;-70
2024/04/10 12:58:00;;;;;;;9.10;1.90;;;15.90;97.00;;;;;;5464130;26;20046;-70